This is the latest recevied weather packets stored in our database for station/object TAPIOLA. If no packets are shown the sender has not sent any weather packets the latest 10 day(s).
| Time | Temp. | Humidity | Pressure | Rain* | Wind** | Luminosity | Snow |
|---|---|---|---|---|---|---|---|
| 1777901232 | 10.56° C | 88% | 1001.8 hPa | 0 mm | - | - | - |
| 1777900032 | 10° C | 90% | 1002 hPa | 0 mm | - | - | - |
| 1777898832 | 9.44° C | 89% | 1002.2 hPa | 0.51 mm | - | - | - |
| 1777897631 | 9.44° C | 88% | 1002.2 hPa | 0.51 mm | - | - | - |
| 1777896431 | 9.44° C | 90% | 1002.4 hPa | 0.51 mm | - | - | - |
| 1777895232 | 9.44° C | 92% | 1002.6 hPa | 1.78 mm | - | - | - |
| 1777894031 | 8.89° C | 91% | 1002.6 hPa | 1.78 mm | - | - | - |
| 1777892831 | 8.33° C | 89% | 1002.8 hPa | 1.78 mm | - | - | - |
| 1777891631 | 8.33° C | 87% | 1003 hPa | 0.51 mm | - | - | - |
| 1777890431 | 8.89° C | 86% | 1003.1 hPa | 0.51 mm | - | - | - |
| 1777889231 | 8.89° C | 83% | 1003.5 hPa | 0.51 mm | - | - | - |
| 1777888031 | 9.44° C | 78% | 1003.9 hPa | 0 mm | - | - | - |
| 1777886831 | 10.56° C | 68% | 1004 hPa | 0 mm | - | - | - |
| 1777885631 | 11.11° C | 63% | 1003.8 hPa | 0 mm | - | - | - |
| 1777884431 | 10.56° C | 60% | 1004.1 hPa | 0 mm | - | - | - |
| 1777883231 | 11.67° C | 51% | 1004.2 hPa | 0 mm | - | - | - |
| 1777882031 | 11.67° C | 49% | 1004.2 hPa | 0 mm | - | - | - |
| 1777880831 | 11.67° C | 48% | 1004.3 hPa | 0 mm | - | - | - |
| 1777879631 | 11.11° C | 48% | 1004 hPa | 0 mm | - | - | - |
| 1777878430 | 11.67° C | 47% | 1004.1 hPa | 0 mm | - | - | - |
| 1777877231 | 11.67° C | 49% | 1004.2 hPa | 0 mm | - | - | - |
| 1777876030 | 11.67° C | 48% | 1004.4 hPa | 0 mm | - | - | - |
| 1777874830 | 11.67° C | 46% | 1004.7 hPa | 0 mm | - | - | - |
| 1777873630 | 11.11° C | 46% | 1005 hPa | 0 mm | - | - | - |
| 1777872431 | 10° C | 48% | 1005 hPa | 0 mm | - | - | - |
* Rain latest hour (hover to see other rain measurements)
** Current wind speed in m/s (hover to see current wind gust speed)